createdAt,value
2023-03-06T00:00:53.967Z,69.68
2023-03-06T00:03:21.350Z,69.77
2023-03-06T00:05:48.551Z,69.57
2023-03-06T00:08:16.015Z,69.80
2023-03-06T00:10:42.717Z,69.51
2023-03-06T00:13:13.056Z,69.79
2023-03-06T00:15:40.242Z,69.19
2023-03-06T00:18:07.292Z,70.09
2023-03-06T00:20:35.461Z,69.78
2023-03-06T00:23:02.297Z,69.91
2023-03-06T00:25:28.933Z,69.47
2023-03-06T00:27:55.782Z,69.93
2023-03-06T00:30:24.460Z,70.05
2023-03-06T00:32:54.149Z,70.30
2023-03-06T00:35:21.130Z,69.99
2023-03-06T00:37:47.798Z,70.77
2023-03-06T00:40:17.433Z,70.13
2023-03-06T00:42:44.629Z,70.18
2023-03-06T00:45:12.141Z,70.15
2023-03-06T00:47:39.029Z,70.33
2023-03-06T00:50:06.387Z,69.92
2023-03-06T00:52:33.063Z,70.60
2023-03-06T00:54:59.853Z,70.26
2023-03-06T00:57:26.464Z,70.23
2023-03-06T00:59:53.315Z,70.11
2023-03-06T01:02:20.116Z,70.71
2023-03-06T01:04:46.775Z,71.20
2023-03-06T01:07:13.421Z,70.62
2023-03-06T01:09:40.059Z,70.76
2023-03-06T01:12:07.070Z,70.54
2023-03-06T01:14:33.936Z,70.50
2023-03-06T01:17:00.569Z,70.52
2023-03-06T01:19:27.400Z,70.55
2023-03-06T01:21:54.115Z,70.33
2023-03-06T01:24:20.823Z,70.70
2023-03-06T01:26:47.425Z,70.89
2023-03-06T01:29:14.036Z,70.96
2023-03-06T01:31:40.746Z,71.09
2023-03-06T01:34:07.449Z,70.63
2023-03-06T01:36:34.389Z,70.85
2023-03-06T01:39:01.052Z,71.09
2023-03-06T01:41:27.725Z,70.89
2023-03-06T01:43:54.363Z,71.18
2023-03-06T01:46:33.787Z,71.20
2023-03-06T01:49:12.076Z,70.75
2023-03-06T01:52:01.812Z,71.09
2023-03-06T01:54:33.293Z,71.27
2023-03-06T01:57:08.084Z,71.59
2023-03-06T01:59:37.563Z,71.04
2023-03-06T02:02:06.958Z,71.16
2023-03-06T02:04:35.474Z,71.33
2023-03-06T02:07:06.236Z,70.62
2023-03-06T02:09:34.229Z,71.54
2023-03-06T02:12:02.906Z,71.39
2023-03-06T02:14:30.268Z,71.27
2023-03-06T02:16:57.052Z,71.55
2023-03-06T02:19:40.193Z,71.09
2023-03-06T02:22:07.238Z,71.53
2023-03-06T02:24:55.100Z,71.16
2023-03-06T02:27:24.212Z,71.02
2023-03-06T02:29:50.936Z,71.45
2023-03-06T02:32:17.687Z,71.47
2023-03-06T02:34:54.301Z,71.66
2023-03-06T02:37:21.486Z,71.03
2023-03-06T02:39:53.321Z,71.46
2023-03-06T02:42:26.147Z,71.89
2023-03-06T02:44:54.294Z,71.79
2023-03-06T02:47:20.911Z,71.28
2023-03-06T02:49:47.889Z,71.46
2023-03-06T02:52:14.583Z,71.51
2023-03-06T02:54:41.259Z,72.05
2023-03-06T02:57:08.233Z,71.60
2023-03-06T02:59:34.884Z,71.67
2023-03-06T03:02:01.521Z,71.82
2023-03-06T03:04:28.153Z,71.97
2023-03-06T03:06:54.764Z,71.78
2023-03-06T03:09:21.424Z,72.35
2023-03-06T03:11:48.130Z,72.18
2023-03-06T03:14:16.681Z,72.28
2023-03-06T03:16:43.446Z,71.97
2023-03-06T03:19:10.087Z,71.71
2023-03-06T03:21:36.749Z,72.29
2023-03-06T03:24:03.523Z,72.30
2023-03-06T03:26:30.200Z,72.25
2023-03-06T03:28:56.828Z,71.95
2023-03-06T03:31:23.552Z,72.42
2023-03-06T03:33:50.207Z,71.85
2023-03-06T03:36:16.890Z,72.39
2023-03-06T03:38:43.487Z,71.77
2023-03-06T03:41:10.106Z,72.26
2023-03-06T03:43:36.758Z,72.13
2023-03-06T03:46:03.458Z,71.75
2023-03-06T03:48:30.119Z,71.92
2023-03-06T03:51:07.739Z,72.21
2023-03-06T03:53:34.456Z,71.98
2023-03-06T03:56:01.100Z,72.13
2023-03-06T03:58:27.720Z,72.58
2023-03-06T04:00:54.367Z,72.29
2023-03-06T04:03:21.121Z,72.58
2023-03-06T04:05:47.933Z,72.25
2023-03-06T04:08:14.595Z,72.84
2023-03-06T04:10:41.290Z,72.55
2023-03-06T04:13:09.982Z,73.10
2023-03-06T04:15:37.030Z,72.17
2023-03-06T04:18:03.854Z,72.06
2023-03-06T04:20:30.754Z,72.70
2023-03-06T04:22:57.425Z,72.25
2023-03-06T04:25:24.020Z,72.08
2023-03-06T04:27:50.641Z,72.40
2023-03-06T04:30:17.387Z,72.68
2023-03-06T04:32:44.227Z,72.96
2023-03-06T04:35:10.867Z,72.44
2023-03-06T04:37:37.605Z,73.16
2023-03-06T04:40:04.561Z,72.19
2023-03-06T04:42:31.341Z,72.71
2023-03-06T04:44:57.994Z,73.00
2023-03-06T04:47:24.655Z,72.10
2023-03-06T04:49:51.314Z,72.67
2023-03-06T04:52:18.003Z,72.81
2023-03-06T04:54:46.058Z,72.55
2023-03-06T04:57:14.207Z,72.55
2023-03-06T04:59:40.873Z,72.26
2023-03-06T05:02:07.912Z,72.59
2023-03-06T05:04:34.575Z,72.61
2023-03-06T05:07:01.194Z,72.84
2023-03-06T05:09:27.847Z,72.28
2023-03-06T05:11:54.562Z,72.71
2023-03-06T05:14:21.186Z,72.56
2023-03-06T05:16:47.918Z,72.65
2023-03-06T05:19:14.573Z,72.63
2023-03-06T05:21:41.189Z,72.14
2023-03-06T05:24:07.925Z,72.53
2023-03-06T05:26:34.891Z,72.27
2023-03-06T05:29:01.615Z,72.57
2023-03-06T05:31:28.322Z,72.81
2023-03-06T05:33:54.938Z,72.29
2023-03-06T05:36:21.578Z,72.29
2023-03-06T05:38:48.265Z,72.79
2023-03-06T05:41:15.355Z,73.06
2023-03-06T05:43:42.557Z,73.05
2023-03-06T05:46:10.812Z,72.56
2023-03-06T05:48:38.102Z,72.87
2023-03-06T05:51:05.521Z,72.99
2023-03-06T05:53:32.829Z,72.31
2023-03-06T05:56:02.187Z,72.65
2023-03-06T05:58:30.041Z,73.02
2023-03-06T06:00:57.282Z,72.47
2023-03-06T06:03:24.884Z,73.26
2023-03-06T06:05:52.144Z,72.61
2023-03-06T06:08:18.998Z,72.75
2023-03-06T06:10:45.589Z,73.39
2023-03-06T06:13:12.220Z,73.48
2023-03-06T06:15:38.912Z,73.53
2023-03-06T06:18:05.590Z,73.42
2023-03-06T06:20:32.339Z,72.99
2023-03-06T06:22:58.952Z,73.45
2023-03-06T06:25:25.613Z,73.26
2023-03-06T06:27:55.440Z,73.50
2023-03-06T06:30:22.548Z,73.48
2023-03-06T06:32:49.452Z,73.61
2023-03-06T06:35:16.241Z,73.22
2023-03-06T06:37:43.063Z,73.74
2023-03-06T06:40:10.394Z,73.43
2023-03-06T06:42:39.944Z,73.13
2023-03-06T06:45:08.972Z,73.10
2023-03-06T06:47:38.385Z,73.31
2023-03-06T06:50:05.636Z,73.27
2023-03-06T06:52:32.271Z,73.30
2023-03-06T06:54:58.913Z,73.51
2023-03-06T06:57:25.525Z,73.77
2023-03-06T06:59:53.896Z,73.44
2023-03-06T07:02:20.957Z,73.18
2023-03-06T07:05:02.566Z,73.46
2023-03-06T07:07:33.284Z,73.33
2023-03-06T07:09:59.941Z,73.28
2023-03-06T07:12:26.568Z,73.45
2023-03-06T07:14:53.247Z,73.28
2023-03-06T07:17:19.870Z,73.61
2023-03-06T07:19:46.560Z,73.60
2023-03-06T07:22:13.530Z,73.46
2023-03-06T07:24:40.214Z,73.87
2023-03-06T07:27:06.892Z,73.42
2023-03-06T07:29:34.593Z,73.53
2023-03-06T07:32:01.610Z,73.29
2023-03-06T07:34:28.372Z,73.49
2023-03-06T07:36:55.075Z,73.31
2023-03-06T07:39:21.702Z,73.14
2023-03-06T07:41:49.534Z,73.20
2023-03-06T07:44:16.158Z,73.40
2023-03-06T07:46:42.836Z,73.32
2023-03-06T07:49:09.618Z,73.35
2023-03-06T07:51:36.254Z,73.47
2023-03-06T07:54:03.019Z,73.28
2023-03-06T07:56:29.807Z,73.62
2023-03-06T07:58:57.187Z,73.16
2023-03-06T08:01:24.319Z,72.84
2023-03-06T08:03:51.622Z,73.33
2023-03-06T08:06:20.058Z,72.98
2023-03-06T08:08:48.164Z,72.72
2023-03-06T08:11:16.733Z,72.33
2023-03-06T08:13:44.337Z,72.60
2023-03-06T08:16:11.703Z,72.52
2023-03-06T08:18:39.957Z,72.42
2023-03-06T08:21:12.446Z,72.92
2023-03-06T08:23:40.036Z,72.96
2023-03-06T08:26:10.824Z,72.75
2023-03-06T08:28:37.653Z,72.73
2023-03-06T08:31:08.689Z,72.36
2023-03-06T08:33:35.766Z,72.72
2023-03-06T08:36:02.636Z,72.26
2023-03-06T08:38:29.282Z,73.10
2023-03-06T08:40:56.076Z,73.21
2023-03-06T08:43:22.761Z,73.17
2023-03-06T08:45:53.918Z,73.15
2023-03-06T08:48:20.607Z,72.95
2023-03-06T08:50:47.481Z,72.88
2023-03-06T08:53:14.292Z,73.04
2023-03-06T08:55:41.120Z,73.27
2023-03-06T08:58:08.694Z,73.88
2023-03-06T09:00:35.913Z,72.93
2023-03-06T09:03:02.657Z,72.51
2023-03-06T09:05:29.430Z,72.73
2023-03-06T09:07:56.392Z,73.02
2023-03-06T09:10:25.374Z,73.05
2023-03-06T09:12:54.995Z,72.35
2023-03-06T09:15:22.976Z,71.86
2023-03-06T09:17:50.938Z,71.86
2023-03-06T09:20:18.855Z,70.89
2023-03-06T09:22:45.801Z,71.35
2023-03-06T09:25:14.014Z,71.53
2023-03-06T09:27:41.358Z,71.43
2023-03-06T09:30:09.131Z,70.82
2023-03-06T09:32:35.859Z,70.67
2023-03-06T09:35:02.511Z,70.74
2023-03-06T09:37:29.132Z,70.59
2023-03-06T09:39:56.250Z,70.92
2023-03-06T09:42:23.851Z,70.45
2023-03-06T09:44:54.666Z,70.43
2023-03-06T09:47:47.529Z,69.57
2023-03-06T09:50:21.333Z,69.75
2023-03-06T09:53:17.976Z,69.98
2023-03-06T09:56:01.025Z,69.84
2023-03-06T09:58:30.860Z,69.83
2023-03-06T10:01:19.760Z,69.88
2023-03-06T10:04:09.041Z,69.85
2023-03-06T10:06:48.513Z,69.49
2023-03-06T10:09:22.502Z,69.72
2023-03-06T10:11:59.221Z,69.27
2023-03-06T10:14:34.644Z,69.17
2023-03-06T10:17:02.446Z,68.76
2023-03-06T10:19:34.584Z,68.66
2023-03-06T10:22:27.112Z,68.99
2023-03-06T10:25:07.037Z,68.33
2023-03-06T10:27:48.718Z,68.64
2023-03-06T10:30:41.458Z,67.54
2023-03-06T10:33:26.900Z,67.96
2023-03-06T10:35:55.853Z,67.92
2023-03-06T10:38:30.166Z,67.32
2023-03-06T10:41:23.145Z,67.18
2023-03-06T10:44:04.856Z,67.58
2023-03-06T10:46:35.514Z,67.54
2023-03-06T10:49:10.686Z,67.58
2023-03-06T10:51:37.457Z,67.33
2023-03-06T10:54:19.106Z,67.10
2023-03-06T10:56:47.567Z,67.20
2023-03-06T10:59:19.962Z,67.39
2023-03-06T11:01:49.277Z,67.16
2023-03-06T11:04:34.692Z,66.98
2023-03-06T11:07:26.288Z,66.86
2023-03-06T11:09:59.214Z,66.79
2023-03-06T11:12:38.207Z,66.55
2023-03-06T11:15:18.445Z,66.40
2023-03-06T11:18:01.747Z,66.15
2023-03-06T11:20:44.894Z,66.46
2023-03-06T11:23:21.917Z,66.00
2023-03-06T11:26:01.238Z,66.09
2023-03-06T11:28:50.101Z,66.17
2023-03-06T11:31:20.926Z,66.39
2023-03-06T11:33:52.626Z,65.89
2023-03-06T11:36:29.364Z,66.13
2023-03-06T11:38:56.223Z,66.10
2023-03-06T11:41:40.843Z,66.19
2023-03-06T11:44:37.302Z,65.99
2023-03-06T11:47:15.669Z,65.78
2023-03-06T11:49:51.152Z,65.78
2023-03-06T11:52:25.104Z,65.75
2023-03-06T11:54:57.594Z,65.59
2023-03-06T11:57:34.596Z,65.53
2023-03-06T12:00:10.170Z,65.55
2023-03-06T12:02:39.695Z,65.33
2023-03-06T12:05:08.960Z,65.26
2023-03-06T12:07:48.936Z,65.19
2023-03-06T12:10:23.329Z,65.26
2023-03-06T12:16:23.053Z,65.36
2023-03-06T12:19:14.220Z,64.87
2023-03-06T12:22:09.211Z,65.25
2023-03-06T12:24:57.492Z,65.11
2023-03-06T12:27:32.011Z,65.16
2023-03-06T12:30:24.960Z,64.79
2023-03-06T12:33:00.876Z,64.12
2023-03-06T12:35:36.611Z,63.84
2023-03-06T12:38:09.154Z,64.55
2023-03-06T12:41:28.677Z,64.80
2023-03-06T12:44:01.849Z,64.06
2023-03-06T12:46:30.519Z,64.24
2023-03-06T12:49:10.301Z,64.42
2023-03-06T12:51:39.917Z,64.22
2023-03-06T12:54:07.368Z,64.20
2023-03-06T12:56:35.463Z,63.95
2023-03-06T12:59:02.671Z,63.87
2023-03-06T13:01:41.486Z,63.89
2023-03-06T13:04:08.149Z,63.84
2023-03-06T13:06:50.717Z,63.40
2023-03-06T13:09:28.463Z,63.86
2023-03-06T13:12:23.385Z,63.61
2023-03-06T13:14:55.420Z,63.24
2023-03-06T13:17:28.170Z,63.42
2023-03-06T13:20:13.160Z,63.23
2023-03-06T13:22:44.849Z,63.24
2023-03-06T13:25:17.493Z,63.38
2023-03-06T13:28:00.452Z,63.80
2023-03-06T13:30:39.324Z,63.28
2023-03-06T13:33:25.831Z,63.42
2023-03-06T13:36:26.659Z,62.82
2023-03-06T13:38:55.142Z,62.94
2023-03-06T13:41:27.822Z,63.28
2023-03-06T13:43:59.924Z,62.92
2023-03-06T13:46:35.227Z,63.12
2023-03-06T13:49:24.194Z,63.47
2023-03-06T13:51:53.783Z,62.91
2023-03-06T13:54:47.130Z,62.86
2023-03-06T13:57:32.164Z,62.37
2023-03-06T14:00:16.757Z,62.56
2023-03-06T14:02:49.415Z,62.64
2023-03-06T14:05:17.662Z,62.84
2023-03-06T14:07:46.796Z,62.80
2023-03-06T14:10:13.375Z,62.66
2023-03-06T14:13:00.017Z,62.57
2023-03-06T14:15:42.816Z,63.18
2023-03-06T14:18:31.419Z,62.73
2023-03-06T14:21:01.588Z,62.74
2023-03-06T14:23:42.312Z,62.87
2023-03-06T14:26:21.896Z,62.73
2023-03-06T14:28:58.705Z,62.38
2023-03-06T14:31:31.911Z,62.33
2023-03-06T14:34:01.771Z,61.87
2023-03-06T14:36:34.713Z,61.78
2023-03-06T14:39:07.495Z,61.64
2023-03-06T14:41:36.093Z,61.84
2023-03-06T14:44:20.048Z,61.86
2023-03-06T14:46:49.292Z,61.96
2023-03-06T14:49:18.249Z,62.39
2023-03-06T14:51:50.878Z,62.43
2023-03-06T14:54:21.264Z,62.25
2023-03-06T14:56:51.322Z,62.24
2023-03-06T14:59:25.145Z,62.44
2023-03-06T15:01:57.739Z,62.76
2023-03-06T15:04:40.637Z,62.46
2023-03-06T15:07:12.365Z,62.75
2023-03-06T15:09:43.729Z,62.50
2023-03-06T15:12:22.799Z,62.49
2023-03-06T15:15:09.621Z,62.88
2023-03-06T15:17:40.154Z,62.99
2023-03-06T15:20:28.164Z,63.20
2023-03-06T15:22:54.808Z,63.02
2023-03-06T15:25:24.098Z,63.29
2023-03-06T15:28:02.194Z,62.67
2023-03-06T15:30:36.826Z,62.57
2023-03-06T15:33:23.632Z,62.05
2023-03-06T15:36:19.629Z,62.37
2023-03-06T15:38:47.536Z,62.62
2023-03-06T15:41:34.365Z,62.37
2023-03-06T15:44:03.103Z,61.96
2023-03-06T15:46:30.080Z,61.79
2023-03-06T15:49:03.100Z,61.96
2023-03-06T15:51:31.300Z,62.20
2023-03-06T15:54:09.736Z,61.97
2023-03-06T15:56:44.699Z,61.84
2023-03-06T15:59:21.663Z,62.29
2023-03-06T16:01:49.814Z,62.28
2023-03-06T16:04:17.408Z,62.24
2023-03-06T16:06:45.903Z,62.14
2023-03-06T16:09:13.700Z,62.34
2023-03-06T16:11:44.815Z,61.98
2023-03-06T16:14:24.101Z,62.38
2023-03-06T16:16:53.687Z,62.07
2023-03-06T16:19:27.301Z,61.58
2023-03-06T16:21:55.687Z,62.35
2023-03-06T16:24:22.929Z,62.26
2023-03-06T16:26:51.888Z,62.23
2023-03-06T16:29:23.238Z,62.29
2023-03-06T16:31:50.124Z,62.44
2023-03-06T16:34:19.742Z,62.60
2023-03-06T16:36:48.759Z,62.37
2023-03-06T16:39:17.027Z,62.44
2023-03-06T16:41:45.874Z,62.80
2023-03-06T16:44:13.072Z,62.55
2023-03-06T16:46:42.520Z,62.09
2023-03-06T16:49:16.147Z,62.31
2023-03-06T16:51:43.162Z,62.63
2023-03-06T16:54:09.845Z,62.53
2023-03-06T16:56:36.530Z,62.80
2023-03-06T16:59:03.251Z,62.51
2023-03-06T17:01:29.908Z,62.53
2023-03-06T17:03:56.594Z,62.20
2023-03-06T17:06:23.497Z,62.54
2023-03-06T17:08:50.866Z,62.03
2023-03-06T17:11:18.124Z,62.54
2023-03-06T17:13:44.732Z,62.51
2023-03-06T17:16:18.150Z,62.34
2023-03-06T17:18:46.285Z,61.97
2023-03-06T17:21:15.752Z,62.37
2023-03-06T17:23:43.107Z,62.02
2023-03-06T17:26:13.399Z,62.53
2023-03-06T17:28:41.122Z,62.10
2023-03-06T17:31:20.102Z,62.10
2023-03-06T17:33:46.984Z,62.32
2023-03-06T17:36:14.743Z,62.38
2023-03-06T17:38:42.197Z,62.65
2023-03-06T17:41:10.778Z,62.33
2023-03-06T17:43:38.892Z,62.25
2023-03-06T17:46:12.443Z,62.84
2023-03-06T17:48:40.122Z,62.33
2023-03-06T17:51:07.591Z,62.58
2023-03-06T17:53:34.521Z,62.67
2023-03-06T17:56:07.480Z,62.99
2023-03-06T17:58:34.931Z,62.19
2023-03-06T18:01:09.768Z,62.31
2023-03-06T18:03:38.502Z,62.24
2023-03-06T18:06:05.767Z,62.40
2023-03-06T18:08:32.420Z,62.28
2023-03-06T18:11:07.677Z,62.06
2023-03-06T18:13:39.110Z,61.72
2023-03-06T18:16:07.213Z,62.24
2023-03-06T18:18:34.298Z,62.24
2023-03-06T18:21:09.328Z,62.52
2023-03-06T18:23:36.874Z,61.73
2023-03-06T18:26:24.957Z,62.34
2023-03-06T18:28:55.036Z,62.15
2023-03-06T18:31:33.751Z,62.16
2023-03-06T18:34:03.345Z,62.11
2023-03-06T18:36:32.422Z,61.98
2023-03-06T18:39:00.826Z,61.95
2023-03-06T18:41:27.517Z,62.12
2023-03-06T18:43:56.301Z,61.68
2023-03-06T18:46:23.750Z,62.27
2023-03-06T18:48:50.599Z,62.38
2023-03-06T18:51:17.887Z,62.31
2023-03-06T18:53:44.716Z,62.14
2023-03-06T18:56:20.233Z,62.18
2023-03-06T18:58:47.473Z,62.11
2023-03-06T19:01:14.231Z,61.94
2023-03-06T19:03:40.921Z,62.28
2023-03-06T19:06:10.276Z,62.45
2023-03-06T19:08:38.076Z,61.61
2023-03-06T19:11:10.533Z,62.24
2023-03-06T19:13:37.328Z,61.52
2023-03-06T19:16:04.269Z,61.67
2023-03-06T19:18:31.414Z,62.02
2023-03-06T19:21:14.905Z,62.01
2023-03-06T19:23:41.940Z,61.62
2023-03-06T19:26:09.340Z,61.97
2023-03-06T19:28:41.178Z,62.22
2023-03-06T19:31:12.573Z,62.23
2023-03-06T19:33:40.477Z,62.02
2023-03-06T19:36:09.796Z,61.76
2023-03-06T19:38:36.819Z,61.96
2023-03-06T19:41:03.675Z,62.05
2023-03-06T19:43:30.689Z,62.11
2023-03-06T19:45:57.835Z,62.01
2023-03-06T19:48:24.764Z,62.26
2023-03-06T19:50:51.402Z,62.03
2023-03-06T19:53:18.089Z,62.09
2023-03-06T19:55:44.702Z,62.30
2023-03-06T19:58:11.431Z,62.17
2023-03-06T20:00:38.598Z,62.52
2023-03-06T20:03:05.296Z,62.18
2023-03-06T20:05:32.727Z,61.94
2023-03-06T20:07:59.438Z,62.10
2023-03-06T20:10:26.128Z,62.33
2023-03-06T20:12:52.741Z,62.42
2023-03-06T20:15:22.200Z,62.14
2023-03-06T20:17:48.958Z,62.74
2023-03-06T20:20:15.942Z,61.96
2023-03-06T20:22:42.857Z,62.61
2023-03-06T20:25:09.738Z,62.39
2023-03-06T20:27:36.523Z,62.78
2023-03-06T20:30:03.473Z,62.54
2023-03-06T20:32:30.231Z,62.36
2023-03-06T20:34:56.965Z,62.88
2023-03-06T20:37:23.632Z,62.62
2023-03-06T20:39:51.599Z,62.51
2023-03-06T20:42:18.245Z,62.58
2023-03-06T20:44:44.893Z,62.41
2023-03-06T20:47:11.518Z,62.01
2023-03-06T20:49:38.589Z,62.37
2023-03-06T20:52:05.234Z,62.62
2023-03-06T20:54:31.857Z,62.54
2023-03-06T20:56:58.468Z,62.28
2023-03-06T20:59:25.236Z,62.79
2023-03-06T21:01:51.990Z,62.62
2023-03-06T21:04:18.641Z,61.80
2023-03-06T21:06:47.012Z,62.42
2023-03-06T21:09:16.521Z,62.19
2023-03-06T21:11:43.240Z,62.76
2023-03-06T21:14:10.852Z,62.63
2023-03-06T21:16:37.463Z,62.32
2023-03-06T21:19:05.204Z,62.38
2023-03-06T21:21:34.857Z,62.04
2023-03-06T21:24:02.137Z,62.19
2023-03-06T21:26:33.598Z,62.12
2023-03-06T21:29:00.834Z,62.26
2023-03-06T21:31:28.478Z,62.59
2023-03-06T21:33:55.399Z,62.45
2023-03-06T21:36:23.395Z,62.14
2023-03-06T21:38:51.376Z,62.29
2023-03-06T21:41:21.105Z,62.45
2023-03-06T21:43:47.752Z,62.06
2023-03-06T21:46:14.529Z,62.32
2023-03-06T21:48:41.516Z,61.82
2023-03-06T21:51:15.739Z,62.52
2023-03-06T21:53:43.727Z,62.43
2023-03-06T21:56:11.698Z,62.42
2023-03-06T21:58:38.981Z,62.64
2023-03-06T22:01:14.388Z,62.66
2023-03-06T22:03:41.088Z,62.22
2023-03-06T22:06:16.790Z,62.23
2023-03-06T22:08:44.615Z,62.30
2023-03-06T22:11:17.089Z,62.60
2023-03-06T22:13:44.420Z,62.71
2023-03-06T22:16:12.157Z,62.24
2023-03-06T22:18:39.099Z,62.83
2023-03-06T22:21:17.000Z,62.50
2023-03-06T22:23:44.042Z,62.54
2023-03-06T22:26:14.444Z,62.45
2023-03-06T22:28:42.161Z,62.22
2023-03-06T22:31:11.506Z,62.52
2023-03-06T22:33:38.234Z,62.74
2023-03-06T22:36:08.005Z,62.68
2023-03-06T22:38:36.619Z,62.78
2023-03-06T22:41:03.603Z,62.48
2023-03-06T22:43:30.295Z,62.84
2023-03-06T22:46:04.234Z,62.50
2023-03-06T22:48:31.157Z,62.68
2023-03-06T22:51:03.502Z,62.84
2023-03-06T22:53:31.201Z,62.93
2023-03-06T22:56:00.165Z,63.03
2023-03-06T22:58:34.099Z,62.92
2023-03-06T23:01:12.437Z,63.08
2023-03-06T23:03:41.923Z,62.92
2023-03-06T23:06:11.694Z,62.63
2023-03-06T23:08:39.027Z,63.22
2023-03-06T23:11:14.767Z,62.91
2023-03-06T23:13:41.509Z,62.76
2023-03-06T23:16:09.452Z,62.60
2023-03-06T23:18:37.198Z,63.02
2023-03-06T23:21:15.008Z,63.10
2023-03-06T23:23:44.144Z,62.86
2023-03-06T23:26:13.521Z,63.24
2023-03-06T23:28:41.031Z,62.99
2023-03-06T23:31:12.668Z,62.96
2023-03-06T23:33:39.416Z,63.51
2023-03-06T23:36:08.014Z,62.87
2023-03-06T23:38:34.701Z,62.81
2023-03-06T23:41:10.199Z,63.31
2023-03-06T23:43:37.008Z,63.12
2023-03-06T23:46:04.210Z,63.05
2023-03-06T23:48:30.997Z,62.58
2023-03-06T23:50:58.252Z,62.41
2023-03-06T23:53:25.191Z,63.16
2023-03-06T23:55:52.199Z,62.64
2023-03-06T23:58:19.616Z,62.34
